AirNav   Pilot Hours Calculator
 
 970 users online  

25PS Primrose Heliport
Minersville, Pennsylvania, USA

GOING TO MINERSVILLE?


FAA INFORMATION EFFECTIVE 07 NOVEMBER 2019

Location

FAA Identifier: 25PS
Lat/Long: 40-41-21.2800N 076-16-46.5800W
40-41.354667N 076-16.776333W
40.6892444,-76.2796056
(estimated)
Elevation: 953 ft. / 290 m (estimated)
Variation: 12W (2020)
From city: 1 mile W of MINERSVILLE, PA
Time zone: UTC -5 (UTC -4 during Daylight Saving Time)
Zip code: 17954

Heliport Operations

Heliport use: Private use. Permission required prior to landing
Activation date: 04/2010
Control tower: no
ARTCC: NEW YORK CENTER
FSS: WILLIAMSPORT FLIGHT SERVICE STATION
Attendance: UNATNDD
Wind indicator: lighted
Segmented circle: no
Lights: ACTVT PERIMETER LGTS 5 CLICKS - 123.025
Beacon: white-green-yellow (heliport)
ACTVT BCN 8 CLICKS - 123.025

Heliport Communications

HARRISBURG APPROACH: 118.25
HARRISBURG DEPARTURE: 118.25
WX AWOS-3 at ZER (4 nm W): 127.575 (570-544-2778)
WX AWOS-3 at N79 (15 nm NW): 119.175 (570-672-0389)

Nearby radio navigation aids

VOR radial/distance  VOR name  Freq  Var
RAVr072/16.7RAVINE VORTAC114.6011W
MIPr148/26.6MILTON VORTAC109.2009W
ETXr292/27.9EAST TEXAS VOR/DME110.2009W
SEGr111/28.1SELINSGROVE VOR/DME110.4008W
LRPr010/34.2LANCASTER VOR/DME117.3009W
FJCr277/37.6ALLENTOWN VORTAC117.5010W

 
NDB name  Hdg/Dist  Freq  Var  ID
BELLGROVE049/19.732810WBZJ -... --.. .---

Heliport Services

Runway Information

Helipad H1

Dimensions: 80 x 80 ft. / 24 x 24 m
Surface: concrete, in good condition
Runway edge lights: PERI
Latitude: 40-41.354667N
Longitude: 076-16.776333W
Elevation: 953.0 ft.
Traffic pattern: leftleft
Markings: basic, in fair condition

Heliport Ownership and Management from official FAA records

Ownership: Privately-owned
Owner: GOOD WILL FIRE CO. NO.1
25 N ST
MINERSVILLE, PA 17954
Phone 570-544-6099
Manager: JOSEPH KUTZA, HANGAR OPS
25 N ST
MINERSVILLE, PA 17954
Phone 570-544-3821
CTC HANGAR OPS 570-544-3821 FOR INFO & ASSISTANCE.

Heliport Operational Statistics

Aircraft based on the field: 1
Helicopters: 1
    

Additional Remarks

FATO 65 FT X 70 FT, MARKED.
FOR CD CTC HARRISBURG APCH AT 800-932-0712.

Instrument Procedures

There are no published instrument procedures at 25PS.

Some nearby airports with instrument procedures:

KZER - Schuylkill County/Joe Zerbey Airport (4 nm W)
74N - Bendigo Airport (15 nm SW)
N79 - Northumberland County Airport (15 nm NW)
N13 - Bloomsburg Municipal Airport (20 nm N)
KMUI - Muir Army Airfield (Fort Indiantown Gap) (20 nm SW)
 
Loc | Ops | Rwys | IFR | FBO | Links
Com | Nav | Svcs | Stats | Notes
Aerial photo
No photo
 
Sectional chart

 
Airport distance calculator
Flying to Primrose Heliport? Find the distance to fly.

From to 25PS

Sunrise and sunset
Times for 21-Nov-2019
 Local
(UTC-5)
 Zulu
(UTC)
Morning civil twilight06:3011:30
Sunrise07:0012:00
Sunset16:4221:42
Evening civil twilight17:1222:12

Current date and time
Zulu (UTC)  22-Nov-2019 01:18:03
Local (UTC-5)  21-Nov-2019 20:18:03
 
METAR
KMUI 
21nm SW 
212356Z AUTO 00000KT 10SM OVC140 07/01 A3006 RMK AO2 SLP185 T00730012 10112 20064 58011
KHZL 
22nm NE 
220055Z AUTO 16004KT 10SM SCT110 06/M01 A3001 RMK AO2
KRDG 
24nm SE 
220054Z 17006KT 10SM CLR 09/02 A3004 RMK AO2 SLP179 T00890017
K22N 
25nm E 
220059Z AUTO 00000KT 10SM CLR 05/02 A3004 RMK AO2
KSEG 
28nm W 
220053Z AUTO 20006KT 10SM OVC110 09/M01 A3000 RMK AO2 SLP161 T00891006
KLNS 
34nm S 
220053Z 17006KT 10SM BKN120 09/01 A3005 RMK AO2 SLP178 T00890006
KXLL 
37nm E 
220055Z AUTO 22003KT 10SM CLR 08/01 A3007 RMK AO2
KMDT 
37nm SW 
220056Z 13004KT 10SM BKN120 OVC200 09/01 A3004 RMK AO2 SLP173 T00890006
KABE 
38nm E 
220051Z 19004KT 10SM FEW110 09/00 A3006 RMK AO2 SLP179 T00940000
KCXY 
38nm SW 
220056Z 16004KT 10SM OVC120 11/M01 A3004 RMK AO2 SLP175 T01111006
TAF
KMUI 
21nm SW 
211900Z 2119/2301 19006KT 9999 BKN180 QNH2995INS BECMG 2204/2205 VRB06KT 9999 SCT045 OVC055 QNH2988INS BECMG 2208/2209 20009KT 9999 BKN025 OVC045 510053 QNH2983INS TEMPO 2212/2215 9000 -SHRA OVC014 BECMG 2214/2215 27010G15KT 9999 BKN025 OVC045 620455 QNH2984INS BECMG 2217/2218 29020G25KT 9999 SCT030 SCT250 QNH2985INS BECMG 2220/2221 31012KT 9999 FEW030 FEW250 QNH2990INS TX11/2120Z TN05/2202Z LAST NO AMDS AFT 2204 NEXT 2211
KRDG 
24nm SE 
211720Z 2118/2218 VRB04KT P6SM SCT250 FM212200 21004KT P6SM BKN200 FM221400 24006KT P6SM OVC060 FM221600 29009KT 6SM -SHRA BR OVC040
NOTAMs
Click for the latest NOTAMs
NOTAMs are issued by the DoD/FAA and will open in a separate window not controlled by AirNav.

 

 
 

Would you like to see your business listed on this page?

 If your business provides an interesting product or service to pilots, flight crews, aircraft, or users of the Primrose Heliport, you should consider listing it here.  To start the listing process, click on the button below
 
Add a business
 

Other Pages about Primrose Heliport

Update a link
 
Copyright © AirNav, LLC. All rights reserved. Privacy Policy  Contact